createdAt,value
2022-08-07T00:00:31.297Z,2.40
2022-08-07T00:04:33.038Z,2.22
2022-08-07T00:08:37.024Z,1.83
2022-08-07T00:13:00.346Z,1.85
2022-08-07T00:17:03.542Z,2.20
2022-08-07T00:21:55.410Z,2.22
2022-08-07T00:25:41.173Z,2.08
2022-08-07T00:29:42.984Z,1.65
2022-08-07T00:33:47.625Z,2.00
2022-08-07T00:37:49.575Z,3.25
2022-08-07T00:42:02.199Z,1.70
2022-08-07T00:46:07.905Z,2.20
2022-08-07T00:50:21.093Z,2.20
2022-08-07T00:54:32.535Z,1.90
2022-08-07T00:58:34.564Z,2.25
2022-08-07T01:02:36.287Z,2.60
2022-08-07T01:06:41.432Z,2.30
2022-08-07T01:10:48.252Z,2.30
2022-08-07T01:15:01.508Z,2.42
2022-08-07T01:19:18.130Z,2.00
2022-08-07T01:23:25.525Z,2.67
2022-08-07T01:27:41.187Z,1.90
2022-08-07T01:31:54.796Z,2.13
2022-08-07T01:36:06.440Z,2.20
2022-08-07T01:40:15.519Z,2.53
2022-08-07T01:44:27.394Z,2.53
2022-08-07T01:48:30.385Z,2.65
2022-08-07T01:52:35.130Z,2.80
2022-08-07T01:57:02.264Z,2.35
2022-08-07T02:01:25.363Z,2.70
2022-08-07T02:05:47.683Z,2.72
2022-08-07T02:10:00.675Z,3.25
2022-08-07T02:14:04.587Z,2.65
2022-08-07T02:18:12.624Z,2.97
2022-08-07T02:22:18.446Z,3.30
2022-08-07T02:26:32.716Z,2.83
2022-08-07T02:30:38.726Z,2.70
2022-08-07T02:34:48.818Z,3.40
2022-08-07T02:38:57.686Z,3.28
2022-08-07T02:43:07.757Z,3.13
2022-08-07T02:51:51.827Z,3.45
2022-08-07T02:56:03.623Z,2.92
2022-08-07T03:00:10.354Z,3.60
2022-08-07T03:04:14.485Z,3.45
2022-08-07T03:08:18.771Z,3.35
2022-08-07T03:12:30.962Z,4.10
2022-08-07T03:16:38.883Z,4.25
2022-08-07T03:20:44.776Z,4.10
2022-08-07T03:24:46.975Z,4.05
2022-08-07T03:28:49.624Z,3.97
2022-08-07T03:32:58.675Z,4.07
2022-08-07T03:37:12.108Z,4.63
2022-08-07T03:41:18.599Z,5.13
2022-08-07T03:45:43.665Z,4.38
2022-08-07T03:49:53.339Z,4.03
2022-08-07T03:54:32.828Z,3.60
2022-08-07T03:59:07.381Z,3.75
2022-08-07T04:02:47.513Z,4.43
2022-08-07T04:07:16.565Z,4.80
2022-08-07T04:12:23.403Z,4.50
2022-08-07T04:15:45.390Z,4.65
2022-08-07T04:19:52.593Z,4.82
2022-08-07T04:24:07.491Z,5.22
2022-08-07T04:28:13.362Z,4.82
2022-08-07T04:32:16.476Z,5.07
2022-08-07T04:36:22.717Z,5.00
2022-08-07T04:40:31.371Z,4.72
2022-08-07T04:44:36.306Z,5.60
2022-08-07T04:49:25.611Z,5.40
2022-08-07T04:54:01.090Z,5.10
2022-08-07T04:58:34.821Z,5.60
2022-08-07T05:04:01.156Z,5.63
2022-08-07T05:08:18.061Z,5.00
2022-08-07T05:12:46.200Z,5.35
2022-08-07T05:17:05.970Z,5.45
2022-08-07T05:21:18.364Z,5.40
2022-08-07T05:26:10.797Z,5.45
2022-08-07T05:30:05.327Z,5.82
2022-08-07T05:34:11.915Z,5.53
2022-08-07T05:38:59.790Z,5.70
2022-08-07T05:42:39.863Z,5.47
2022-08-07T05:46:51.340Z,4.90
2022-08-07T05:51:01.190Z,5.55
2022-08-07T05:55:10.748Z,5.65
2022-08-07T05:59:19.220Z,5.22
2022-08-07T06:03:53.862Z,4.55
2022-08-07T06:08:14.918Z,3.53
2022-08-07T06:12:15.310Z,3.20
2022-08-07T06:16:18.822Z,3.30
2022-08-07T06:20:31.901Z,3.10
2022-08-07T06:24:57.981Z,3.53
2022-08-07T06:29:04.160Z,3.40
2022-08-07T06:33:09.911Z,3.40
2022-08-07T06:37:20.665Z,3.22
2022-08-07T06:42:00.504Z,3.40
2022-08-07T06:46:00.142Z,4.25
2022-08-07T06:50:04.022Z,3.60
2022-08-07T06:55:34.052Z,3.22
2022-08-07T06:58:37.405Z,3.67
2022-08-07T07:02:53.857Z,3.42
2022-08-07T07:07:01.165Z,3.63
2022-08-07T07:11:14.544Z,3.08
2022-08-07T07:15:35.742Z,3.45
2022-08-07T07:19:57.498Z,4.00
2022-08-07T07:24:08.443Z,3.92
2022-08-07T07:28:42.726Z,3.35
2022-08-07T07:32:42.671Z,3.92
2022-08-07T07:36:48.098Z,3.60
2022-08-07T07:41:02.238Z,3.30
2022-08-07T07:45:06.699Z,2.90
2022-08-07T07:50:31.632Z,3.08
2022-08-07T07:53:34.845Z,3.70
2022-08-07T07:57:50.230Z,3.72
2022-08-07T08:02:03.683Z,3.47
2022-08-07T08:06:08.015Z,3.60
2022-08-07T08:10:37.584Z,3.45
2022-08-07T08:14:38.550Z,3.60
2022-08-07T08:18:41.854Z,3.65
2022-08-07T08:23:08.384Z,3.42
2022-08-07T08:27:14.412Z,3.50
2022-08-07T08:31:58.442Z,3.70
2022-08-07T08:35:51.518Z,3.38
2022-08-07T08:39:58.316Z,3.22
2022-08-07T08:44:29.145Z,3.33
2022-08-07T08:48:46.710Z,3.03
2022-08-07T08:53:34.791Z,3.00
2022-08-07T08:58:02.970Z,3.53
2022-08-07T09:02:35.073Z,3.70
2022-08-07T09:07:11.271Z,3.03
2022-08-07T09:11:24.445Z,3.75
2022-08-07T09:16:25.456Z,3.15
2022-08-07T09:20:42.842Z,3.70
2022-08-07T09:25:17.180Z,3.40
2022-08-07T09:30:05.065Z,3.33
2022-08-07T09:34:21.505Z,3.25
2022-08-07T09:38:36.677Z,3.17
2022-08-07T09:43:08.315Z,2.90
2022-08-07T09:47:55.997Z,2.78
2022-08-07T09:52:34.093Z,3.58
2022-08-07T09:56:55.688Z,3.28
2022-08-07T10:01:51.152Z,3.40
2022-08-07T10:06:12.321Z,3.00
2022-08-07T10:10:39.702Z,4.22
2022-08-07T10:15:21.081Z,4.05
2022-08-07T10:19:44.018Z,3.20
2022-08-07T10:24:18.418Z,3.53
2022-08-07T10:28:49.607Z,4.13
2022-08-07T10:33:14.931Z,3.00
2022-08-07T10:38:00.948Z,3.30
2022-08-07T10:42:20.783Z,3.53
2022-08-07T10:46:32.559Z,4.05
2022-08-07T10:50:49.899Z,3.20
2022-08-07T10:55:01.579Z,2.83
2022-08-07T10:59:24.562Z,3.15
2022-08-07T11:03:52.566Z,3.72
2022-08-07T11:08:18.475Z,2.57
2022-08-07T11:12:37.898Z,2.60
2022-08-07T11:17:02.115Z,2.47
2022-08-07T11:21:14.958Z,2.55
2022-08-07T11:25:30.724Z,2.35
2022-08-07T11:30:18.040Z,2.58
2022-08-07T11:34:43.900Z,2.15
2022-08-07T11:39:01.942Z,1.60
2022-08-07T11:43:17.181Z,1.70
2022-08-07T11:48:18.150Z,1.50
2022-08-07T11:52:37.708Z,1.50
2022-08-07T11:57:03.780Z,1.35
2022-08-07T12:01:25.361Z,1.70
2022-08-07T12:05:58.389Z,1.40
2022-08-07T12:10:08.551Z,2.22
2022-08-07T12:14:27.574Z,1.50
2022-08-07T12:18:38.289Z,1.80
2022-08-07T12:23:37.176Z,1.77
2022-08-07T12:28:08.506Z,2.95
2022-08-07T12:32:42.008Z,1.58
2022-08-07T12:36:49.524Z,1.48
2022-08-07T12:40:55.328Z,1.80
2022-08-07T12:45:04.485Z,1.53
2022-08-07T12:49:44.802Z,4.53
2022-08-07T12:54:37.238Z,1.95
2022-08-07T12:58:43.871Z,3.20
2022-08-07T13:03:07.226Z,2.05
2022-08-07T13:08:11.900Z,2.38
2022-08-07T13:12:15.137Z,1.60
2022-08-07T13:16:40.302Z,1.58
2022-08-07T13:20:51.095Z,1.77
2022-08-07T13:25:00.472Z,2.60
2022-08-07T13:29:34.635Z,3.55
2022-08-07T13:34:34.509Z,2.00
2022-08-07T13:38:21.722Z,1.83
2022-08-07T13:42:26.794Z,2.22
2022-08-07T13:46:33.497Z,1.60
2022-08-07T13:50:45.096Z,1.85
2022-08-07T13:55:11.011Z,1.88
2022-08-07T13:59:23.778Z,1.45
2022-08-07T14:04:05.280Z,1.95
2022-08-07T14:07:54.423Z,1.88
2022-08-07T14:12:07.495Z,1.48
2022-08-07T14:16:16.113Z,1.52
2022-08-07T14:20:44.297Z,1.50
2022-08-07T14:24:51.469Z,1.65
2022-08-07T14:28:57.494Z,1.60
2022-08-07T14:37:36.042Z,1.42
2022-08-07T14:42:20.168Z,1.58
2022-08-07T14:46:02.645Z,1.52
2022-08-07T14:50:11.286Z,1.42
2022-08-07T14:54:31.039Z,1.38
2022-08-07T14:58:37.226Z,1.65
2022-08-07T15:02:46.427Z,1.80
2022-08-07T15:07:00.836Z,1.70
2022-08-07T15:11:15.382Z,1.30
2022-08-07T15:15:43.985Z,1.60
2022-08-07T15:20:31.381Z,1.85
2022-08-07T15:30:02.352Z,2.10
2022-08-07T15:33:20.149Z,1.45
2022-08-07T15:37:28.886Z,1.77
2022-08-07T15:42:46.331Z,1.48
2022-08-07T15:46:31.943Z,1.95
2022-08-07T15:51:08.128Z,2.13
2022-08-07T15:55:11.459Z,2.10
2022-08-07T15:59:20.243Z,2.08
2022-08-07T16:03:47.430Z,2.60
2022-08-07T16:08:30.668Z,2.50
2022-08-07T16:12:41.048Z,2.58
2022-08-07T16:18:00.834Z,2.05
2022-08-07T16:22:04.060Z,2.40
2022-08-07T16:26:59.612Z,2.70
2022-08-07T16:31:50.050Z,2.35
2022-08-07T16:36:01.327Z,1.88
2022-08-07T16:40:28.167Z,2.25
2022-08-07T16:45:24.620Z,2.60
2022-08-07T16:50:27.931Z,2.00
2022-08-07T16:54:33.068Z,2.50
2022-08-07T16:59:11.026Z,2.20
2022-08-07T17:03:58.379Z,2.35
2022-08-07T17:07:57.656Z,2.40
2022-08-07T17:12:33.757Z,2.00
2022-08-07T17:16:45.201Z,2.58
2022-08-07T17:20:58.064Z,2.55
2022-08-07T17:25:08.290Z,2.70
2022-08-07T17:30:14.824Z,2.35
2022-08-07T17:34:34.247Z,2.53
2022-08-07T17:38:58.895Z,2.38
2022-08-07T17:43:39.667Z,2.80
2022-08-07T17:48:17.107Z,2.67
2022-08-07T17:52:39.612Z,2.75
2022-08-07T17:57:18.458Z,2.40
2022-08-07T18:01:28.942Z,2.30
2022-08-07T18:06:01.633Z,2.25
2022-08-07T18:10:33.506Z,2.63
2022-08-07T18:14:46.380Z,2.13
2022-08-07T18:21:03.778Z,2.40
2022-08-07T18:23:43.031Z,2.13
2022-08-07T18:28:13.654Z,2.35
2022-08-07T18:33:11.023Z,2.38
2022-08-07T18:38:56.139Z,2.42
2022-08-07T18:42:12.757Z,3.28
2022-08-07T18:46:42.883Z,3.23
2022-08-07T18:50:47.714Z,3.25
2022-08-07T18:55:41.056Z,2.85
2022-08-07T18:59:59.135Z,3.38
2022-08-07T19:04:13.688Z,2.90
2022-08-07T19:08:26.785Z,3.53
2022-08-07T19:13:10.437Z,3.15
2022-08-07T19:18:00.961Z,3.78
2022-08-07T19:21:58.781Z,3.58
2022-08-07T19:26:24.722Z,4.32
2022-08-07T19:31:03.822Z,4.47
2022-08-07T19:35:01.453Z,3.88
2022-08-07T19:39:09.194Z,4.13
2022-08-07T19:43:22.080Z,3.92
2022-08-07T19:47:44.666Z,3.28
2022-08-07T19:52:00.368Z,3.67
2022-08-07T19:56:15.103Z,3.40
2022-08-07T20:00:34.702Z,3.35
2022-08-07T20:04:42.942Z,3.03
2022-08-07T20:08:51.846Z,3.08
2022-08-07T20:12:55.108Z,3.15
2022-08-07T20:16:58.541Z,3.20
2022-08-07T20:21:02.284Z,3.33
2022-08-07T20:25:19.279Z,3.85
2022-08-07T20:29:47.692Z,2.97
2022-08-07T20:33:56.838Z,3.33
2022-08-07T20:38:00.846Z,4.28
2022-08-07T20:42:08.759Z,2.92
2022-08-07T20:46:26.123Z,2.83
2022-08-07T20:50:33.371Z,3.10
2022-08-07T20:54:35.149Z,2.88
2022-08-07T20:58:41.906Z,3.20
2022-08-07T21:03:03.755Z,2.80
2022-08-07T21:07:14.654Z,2.80
2022-08-07T21:11:40.239Z,2.35
2022-08-07T21:16:00.350Z,2.30
2022-08-07T21:20:06.608Z,2.67
2022-08-07T21:28:48.850Z,2.42
2022-08-07T21:33:13.047Z,3.47
2022-08-07T21:37:21.695Z,2.53
2022-08-07T21:41:38.331Z,3.00
2022-08-07T21:46:24.767Z,2.78
2022-08-07T21:50:51.883Z,3.20
2022-08-07T21:54:59.724Z,2.30
2022-08-07T21:59:19.479Z,2.33
2022-08-07T22:03:41.043Z,2.10
2022-08-07T22:07:58.483Z,1.90
2022-08-07T22:12:17.746Z,1.97
2022-08-07T22:16:42.654Z,1.95
2022-08-07T22:20:59.747Z,2.67
2022-08-07T22:25:13.689Z,2.10
2022-08-07T22:29:48.416Z,2.35
2022-08-07T22:33:58.624Z,2.20
2022-08-07T22:38:35.880Z,2.30
2022-08-07T22:42:40.215Z,2.17
2022-08-07T22:47:08.684Z,1.75
2022-08-07T22:51:37.955Z,2.08
2022-08-07T22:55:58.734Z,2.28
2022-08-07T23:00:07.879Z,2.00
2022-08-07T23:04:58.327Z,2.40
2022-08-07T23:10:03.487Z,2.20
2022-08-07T23:14:10.926Z,2.22
2022-08-07T23:19:11.274Z,2.65
2022-08-07T23:24:07.100Z,2.57
2022-08-07T23:28:21.377Z,2.25
2022-08-07T23:34:36.301Z,2.17
2022-08-07T23:38:03.896Z,2.10
2022-08-07T23:42:34.270Z,2.28
2022-08-07T23:47:12.125Z,2.35
2022-08-07T23:53:05.505Z,2.05
2022-08-07T23:55:56.185Z,1.85
